createdAt,value
2023-04-08T00:00:52.134Z,11.53
2023-04-08T00:03:19.137Z,9.80
2023-04-08T00:05:46.156Z,10.20
2023-04-08T00:08:13.648Z,8.30
2023-04-08T00:10:40.790Z,8.17
2023-04-08T00:13:07.711Z,10.10
2023-04-08T00:15:34.500Z,9.57
2023-04-08T00:18:02.207Z,7.80
2023-04-08T00:20:29.151Z,10.93
2023-04-08T00:22:56.083Z,8.77
2023-04-08T00:25:25.233Z,8.80
2023-04-08T00:27:52.698Z,9.27
2023-04-08T00:30:19.502Z,9.30
2023-04-08T00:32:46.894Z,6.80
2023-04-08T00:35:14.135Z,7.73
2023-04-08T00:37:41.603Z,8.33
2023-04-08T00:40:08.902Z,12.43
2023-04-08T00:42:36.248Z,8.90
2023-04-08T00:45:03.864Z,12.87
2023-04-08T00:47:31.376Z,7.83
2023-04-08T00:49:58.314Z,8.83
2023-04-08T00:52:25.344Z,10.10
2023-04-08T00:54:52.836Z,9.23
2023-04-08T00:57:19.577Z,9.80
2023-04-08T00:59:46.640Z,9.17
2023-04-08T01:02:22.624Z,9.60
2023-04-08T01:05:10.795Z,9.83
2023-04-08T01:07:45.425Z,8.60
2023-04-08T01:10:27.525Z,10.47
2023-04-08T01:12:59.860Z,10.17
2023-04-08T01:15:29.486Z,9.30
2023-04-08T01:17:59.146Z,9.10
2023-04-08T01:20:27.512Z,12.63
2023-04-08T01:23:09.311Z,11.13
2023-04-08T01:25:38.560Z,8.47
2023-04-08T01:28:14.128Z,12.07
2023-04-08T01:30:42.646Z,10.93
2023-04-08T01:33:15.685Z,10.93
2023-04-08T01:35:43.065Z,12.73
2023-04-08T01:38:14.118Z,9.60
2023-04-08T01:40:42.481Z,10.93
2023-04-08T01:43:12.090Z,12.20
2023-04-08T01:45:39.057Z,12.27
2023-04-08T01:48:07.865Z,12.63
2023-04-08T01:50:35.696Z,9.57
2023-04-08T01:53:04.897Z,9.37
2023-04-08T01:55:34.820Z,16.10
2023-04-08T01:58:02.958Z,11.30
2023-04-08T02:00:32.258Z,12.47
2023-04-08T02:03:01.075Z,11.97
2023-04-08T02:05:28.012Z,10.27
2023-04-08T02:07:54.844Z,8.90
2023-04-08T02:10:22.142Z,11.80
2023-04-08T02:12:49.006Z,11.27
2023-04-08T02:15:16.966Z,11.50
2023-04-08T02:17:51.101Z,10.17
2023-04-08T02:20:26.434Z,13.20
2023-04-08T02:23:03.201Z,10.80
2023-04-08T02:25:32.163Z,10.93
2023-04-08T02:28:00.785Z,13.83
2023-04-08T02:30:28.484Z,10.60
2023-04-08T02:32:58.275Z,10.83
2023-04-08T02:35:27.693Z,12.37
2023-04-08T02:37:54.537Z,10.53
2023-04-08T02:40:29.723Z,12.40
2023-04-08T02:42:58.335Z,11.53
2023-04-08T02:45:30.536Z,11.67
2023-04-08T02:47:58.991Z,11.93
2023-04-08T02:50:26.688Z,15.03
2023-04-08T02:52:53.892Z,11.67
2023-04-08T02:55:20.746Z,10.90
2023-04-08T02:57:48.600Z,13.07
2023-04-08T03:00:16.445Z,12.00
2023-04-08T03:02:43.370Z,13.07
2023-04-08T03:05:11.157Z,10.73
2023-04-08T03:07:38.866Z,11.47
2023-04-08T03:10:07.102Z,11.17
2023-04-08T03:12:34.270Z,14.73
2023-04-08T03:15:01.925Z,11.23
2023-04-08T03:17:28.742Z,17.50
2023-04-08T03:19:55.645Z,14.20
2023-04-08T03:22:24.397Z,12.77
2023-04-08T03:24:51.415Z,13.87
2023-04-08T03:27:18.309Z,13.70
2023-04-08T03:29:46.787Z,11.13
2023-04-08T03:32:13.954Z,11.43
2023-04-08T03:34:40.814Z,12.67
2023-04-08T03:37:08.972Z,12.00
2023-04-08T03:39:36.082Z,12.37
2023-04-08T03:42:03.205Z,11.27
2023-04-08T03:44:30.338Z,13.70
2023-04-08T03:46:57.136Z,12.63
2023-04-08T03:49:24.600Z,14.47
2023-04-08T03:51:51.490Z,13.47
2023-04-08T03:54:18.444Z,13.77
2023-04-08T03:56:45.211Z,13.60
2023-04-08T03:59:12.050Z,14.23
2023-04-08T04:01:41.736Z,18.87
2023-04-08T04:04:09.578Z,12.30
2023-04-08T04:06:36.590Z,14.27
2023-04-08T04:09:03.638Z,13.30
2023-04-08T04:11:30.460Z,13.00
2023-04-08T04:13:57.278Z,17.00
2023-04-08T04:16:24.909Z,17.00
2023-04-08T04:18:53.994Z,14.90
2023-04-08T04:21:21.389Z,15.77
2023-04-08T04:23:48.512Z,14.60
2023-04-08T04:26:15.430Z,18.60
2023-04-08T04:28:42.256Z,14.50
2023-04-08T04:31:18.172Z,15.67
2023-04-08T04:33:45.012Z,15.53
2023-04-08T04:36:12.116Z,16.63
2023-04-08T04:38:39.851Z,12.67
2023-04-08T04:41:07.138Z,12.97
2023-04-08T04:43:33.891Z,15.87
2023-04-08T04:46:00.957Z,13.90
2023-04-08T04:48:27.946Z,12.90
2023-04-08T04:51:00.043Z,13.57
2023-04-08T04:53:27.342Z,16.73
2023-04-08T04:55:55.359Z,15.47
2023-04-08T04:58:22.237Z,15.90
2023-04-08T05:00:49.074Z,14.30
2023-04-08T05:03:16.730Z,17.23
2023-04-08T05:05:43.809Z,15.47
2023-04-08T05:08:10.840Z,15.90
2023-04-08T05:10:37.617Z,16.27
2023-04-08T05:13:04.820Z,19.10
2023-04-08T05:15:32.776Z,12.33
2023-04-08T05:17:59.613Z,15.27
2023-04-08T05:20:26.584Z,14.97
2023-04-08T05:22:53.771Z,16.93
2023-04-08T05:25:20.645Z,16.33
2023-04-08T05:27:47.763Z,15.80
2023-04-08T05:30:14.588Z,17.70
2023-04-08T05:32:41.498Z,17.27
2023-04-08T05:35:10.032Z,17.50
2023-04-08T05:37:36.796Z,21.40
2023-04-08T05:40:03.969Z,18.13
2023-04-08T05:42:32.237Z,17.80
2023-04-08T05:44:59.305Z,19.57
2023-04-08T05:47:26.138Z,17.93
2023-04-08T05:49:53.166Z,19.63
2023-04-08T05:52:21.327Z,14.90
2023-04-08T05:54:48.113Z,17.97
2023-04-08T05:57:14.860Z,16.77
2023-04-08T05:59:41.746Z,17.50
2023-04-08T06:02:08.793Z,21.60
2023-04-08T06:04:36.034Z,23.03
2023-04-08T06:07:04.214Z,24.17
2023-04-08T06:09:31.028Z,17.30
2023-04-08T06:11:58.057Z,21.53
2023-04-08T06:14:25.887Z,19.40
2023-04-08T06:16:55.465Z,20.00
2023-04-08T06:19:22.269Z,25.20
2023-04-08T06:21:49.852Z,18.43
2023-04-08T06:24:16.652Z,19.57
2023-04-08T06:26:43.356Z,16.07
2023-04-08T06:29:10.998Z,21.20
2023-04-08T06:31:37.807Z,19.97
2023-04-08T06:34:04.907Z,18.20
2023-04-08T06:36:31.733Z,17.63
2023-04-08T06:38:58.461Z,17.87
2023-04-08T06:41:26.089Z,15.07
2023-04-08T06:43:58.717Z,17.13
2023-04-08T06:46:26.519Z,14.67
2023-04-08T06:48:53.435Z,13.87
2023-04-08T06:51:20.308Z,12.13
2023-04-08T06:53:47.549Z,13.90
2023-04-08T06:56:14.600Z,12.57
2023-04-08T06:58:41.394Z,12.07
2023-04-08T07:01:08.209Z,14.20
2023-04-08T07:03:35.168Z,12.00
2023-04-08T07:06:02.261Z,10.93
2023-04-08T07:08:29.002Z,11.20
2023-04-08T07:10:56.664Z,10.77
2023-04-08T07:13:23.725Z,10.23
2023-04-08T07:15:50.499Z,13.30
2023-04-08T07:18:17.264Z,10.07
2023-04-08T07:20:44.072Z,12.87
2023-04-08T07:23:11.651Z,11.97
2023-04-08T07:25:38.615Z,11.60
2023-04-08T07:28:05.665Z,10.90
2023-04-08T07:30:34.581Z,10.33
2023-04-08T07:33:01.644Z,11.10
2023-04-08T07:35:29.133Z,10.70
2023-04-08T07:37:57.786Z,11.10
2023-04-08T07:40:25.418Z,17.13
2023-04-08T07:42:52.458Z,11.70
2023-04-08T07:45:19.368Z,14.00
2023-04-08T07:47:46.213Z,20.87
2023-04-08T07:50:13.591Z,21.50
2023-04-08T07:52:41.367Z,19.73
2023-04-08T07:55:08.717Z,24.83
2023-04-08T07:57:35.686Z,21.23
2023-04-08T08:00:03.766Z,20.40
2023-04-08T08:02:40.843Z,19.63
2023-04-08T08:05:08.338Z,22.60
2023-04-08T08:07:35.740Z,20.20
2023-04-08T08:10:02.508Z,20.90
2023-04-08T08:12:29.450Z,21.60
2023-04-08T08:14:59.234Z,27.03
2023-04-08T08:17:30.359Z,29.20
2023-04-08T08:19:57.301Z,27.57
2023-04-08T08:22:24.409Z,25.40
2023-04-08T08:24:58.423Z,26.67
2023-04-08T08:27:26.889Z,25.63
2023-04-08T08:29:53.735Z,26.23
2023-04-08T08:32:20.743Z,26.20
2023-04-08T08:34:47.522Z,26.47
2023-04-08T08:37:14.423Z,24.27
2023-04-08T08:39:41.840Z,24.57
2023-04-08T08:42:22.354Z,27.17
2023-04-08T08:44:49.889Z,26.57
2023-04-08T08:47:17.441Z,27.30
2023-04-08T08:49:45.485Z,27.47
2023-04-08T08:52:16.322Z,29.97
2023-04-08T08:54:44.346Z,26.80
2023-04-08T08:57:21.320Z,28.97
2023-04-08T08:59:48.173Z,28.13
2023-04-08T09:02:30.040Z,25.53
2023-04-08T09:05:02.427Z,27.23
2023-04-08T09:07:30.981Z,26.03
2023-04-08T09:09:59.478Z,28.20
2023-04-08T09:12:28.475Z,26.47
2023-04-08T09:15:08.586Z,24.23
2023-04-08T09:17:38.454Z,24.27
2023-04-08T09:20:12.365Z,28.03
2023-04-08T09:22:58.946Z,25.83
2023-04-08T09:25:28.743Z,28.47
2023-04-08T09:27:56.543Z,23.90
2023-04-08T09:30:28.258Z,23.87
2023-04-08T09:32:57.510Z,22.23
2023-04-08T09:35:26.424Z,26.73
2023-04-08T09:37:53.239Z,27.13
2023-04-08T09:40:20.272Z,25.60
2023-04-08T09:42:51.247Z,26.37
2023-04-08T09:45:19.149Z,24.73
2023-04-08T09:48:22.668Z,23.37
2023-04-08T09:50:51.381Z,25.67
2023-04-08T09:53:23.377Z,27.57
2023-04-08T09:55:53.687Z,28.33
2023-04-08T09:58:27.716Z,23.03
2023-04-08T10:00:55.387Z,23.57
2023-04-08T10:03:25.588Z,21.67
2023-04-08T10:05:54.423Z,23.97
2023-04-08T10:08:22.251Z,25.10
2023-04-08T10:10:49.526Z,25.30
2023-04-08T10:13:17.115Z,23.53
2023-04-08T10:15:45.808Z,26.33
2023-04-08T10:18:18.668Z,24.97
2023-04-08T10:20:46.970Z,25.43
2023-04-08T10:23:18.709Z,25.07
2023-04-08T10:25:48.130Z,27.30
2023-04-08T10:28:15.521Z,26.73
2023-04-08T10:30:48.743Z,28.03
2023-04-08T10:33:37.875Z,23.57
2023-04-08T10:36:07.164Z,26.03
2023-04-08T10:38:34.162Z,23.50
2023-04-08T10:41:01.025Z,26.17
2023-04-08T10:43:33.785Z,26.60
2023-04-08T10:46:01.716Z,25.53
2023-04-08T10:48:31.784Z,25.47
2023-04-08T10:50:59.692Z,25.10
2023-04-08T10:53:34.720Z,22.03
2023-04-08T10:56:13.463Z,23.57
2023-04-08T10:58:50.822Z,24.73
2023-04-08T11:01:18.211Z,21.50
2023-04-08T11:03:46.070Z,22.90
2023-04-08T11:06:13.967Z,21.27
2023-04-08T11:08:42.473Z,19.23
2023-04-08T11:11:10.838Z,21.90
2023-04-08T11:13:51.065Z,23.63
2023-04-08T11:16:21.761Z,24.17
2023-04-08T11:18:49.638Z,23.47
2023-04-08T11:21:17.434Z,23.07
2023-04-08T11:23:44.397Z,23.20
2023-04-08T11:26:12.386Z,25.20
2023-04-08T11:28:40.467Z,21.90
2023-04-08T11:31:08.995Z,24.30
2023-04-08T11:33:36.395Z,21.87
2023-04-08T11:36:08.544Z,25.33
2023-04-08T11:38:40.512Z,22.23
2023-04-08T11:41:07.623Z,26.77
2023-04-08T11:43:36.692Z,27.33
2023-04-08T11:46:22.630Z,23.93
2023-04-08T11:49:02.937Z,24.00
2023-04-08T11:51:30.156Z,24.77
2023-04-08T11:53:57.843Z,24.63
2023-04-08T11:56:25.676Z,25.97
2023-04-08T11:58:53.388Z,25.70
2023-04-08T12:01:21.550Z,24.03
2023-04-08T12:03:57.324Z,24.57
2023-04-08T12:06:24.821Z,24.87
2023-04-08T12:08:51.778Z,26.50
2023-04-08T12:11:20.253Z,24.23
2023-04-08T12:13:49.818Z,22.60
2023-04-08T12:16:17.540Z,26.30
2023-04-08T12:18:44.816Z,28.07
2023-04-08T12:21:11.759Z,29.27
2023-04-08T12:23:38.610Z,26.13
2023-04-08T12:26:05.692Z,29.03
2023-04-08T12:28:32.579Z,29.10
2023-04-08T12:30:59.713Z,26.37
2023-04-08T12:33:26.543Z,24.23
2023-04-08T12:35:54.216Z,30.57
2023-04-08T12:38:21.056Z,30.97
2023-04-08T12:40:49.741Z,31.40
2023-04-08T12:43:18.000Z,30.23
2023-04-08T12:45:44.973Z,29.00
2023-04-08T12:48:11.772Z,29.57
2023-04-08T12:50:38.643Z,29.63
2023-04-08T12:53:05.530Z,31.50
2023-04-08T12:55:32.522Z,31.57
2023-04-08T12:57:59.899Z,30.73
2023-04-08T13:00:26.767Z,31.07
2023-04-08T13:02:53.627Z,29.07
2023-04-08T13:05:29.453Z,32.90
2023-04-08T13:08:06.881Z,29.63
2023-04-08T13:10:34.084Z,29.07
2023-04-08T13:13:00.850Z,31.10
2023-04-08T13:15:28.396Z,29.20
2023-04-08T13:17:55.258Z,27.17
2023-04-08T13:20:25.878Z,28.60
2023-04-08T13:22:53.566Z,34.43
2023-04-08T13:25:20.988Z,30.07
2023-04-08T13:27:47.911Z,26.97
2023-04-08T13:30:16.008Z,29.70
2023-04-08T13:32:43.755Z,25.03
2023-04-08T13:35:10.748Z,27.00
2023-04-08T13:37:37.791Z,28.57
2023-04-08T13:40:05.363Z,27.80
2023-04-08T13:42:32.885Z,27.50
2023-04-08T13:45:00.517Z,26.80
2023-04-08T13:47:29.005Z,28.57
2023-04-08T13:49:55.783Z,25.67
2023-04-08T13:52:22.884Z,25.00
2023-04-08T13:54:49.782Z,27.57
2023-04-08T13:57:16.545Z,23.23
2023-04-08T13:59:44.830Z,24.03
2023-04-08T14:02:11.773Z,22.60
2023-04-08T14:04:40.043Z,23.80
2023-04-08T14:07:07.101Z,26.90
2023-04-08T14:09:34.184Z,27.03
2023-04-08T14:12:01.211Z,25.23
2023-04-08T14:14:28.083Z,22.70
2023-04-08T14:16:55.850Z,24.90
2023-04-08T14:19:23.057Z,26.13
2023-04-08T14:21:49.882Z,22.73
2023-04-08T14:24:16.672Z,23.10
2023-04-08T14:26:44.180Z,23.17
2023-04-08T14:29:11.854Z,22.03
2023-04-08T14:31:38.675Z,19.97
2023-04-08T14:34:05.539Z,20.23
2023-04-08T14:36:33.025Z,20.30
2023-04-08T14:39:00.900Z,18.07
2023-04-08T14:41:27.733Z,23.20
2023-04-08T14:43:54.994Z,20.43
2023-04-08T14:46:22.332Z,17.90
2023-04-08T14:48:49.804Z,20.13
2023-04-08T14:51:16.837Z,20.83
2023-04-08T14:53:44.552Z,23.23
2023-04-08T14:56:11.411Z,18.10
2023-04-08T14:58:38.390Z,19.73
2023-04-08T15:01:05.348Z,21.77
2023-04-08T15:03:32.244Z,19.33
2023-04-08T15:05:59.893Z,21.87
2023-04-08T15:08:26.697Z,21.20
2023-04-08T15:10:53.598Z,19.80
2023-04-08T15:13:20.373Z,21.20
2023-04-08T15:15:47.232Z,21.10
2023-04-08T15:18:14.837Z,20.53
2023-04-08T15:20:41.979Z,18.90
2023-04-08T15:23:08.974Z,24.87
2023-04-08T15:25:35.804Z,23.00
2023-04-08T15:28:02.799Z,19.47
2023-04-08T15:30:35.523Z,22.37
2023-04-08T15:33:04.716Z,22.07
2023-04-08T15:35:33.095Z,19.43
2023-04-08T15:38:01.225Z,21.33
2023-04-08T15:40:28.239Z,23.97
2023-04-08T15:42:56.082Z,19.70
2023-04-08T15:45:23.057Z,21.10
2023-04-08T15:47:50.117Z,21.00
2023-04-08T15:50:17.626Z,20.77
2023-04-08T15:52:45.157Z,22.10
2023-04-08T15:55:12.123Z,21.70
2023-04-08T15:57:39.126Z,21.30
2023-04-08T16:00:16.657Z,25.23
2023-04-08T16:02:44.207Z,24.83
2023-04-08T16:05:13.286Z,20.83
2023-04-08T16:07:40.309Z,24.93
2023-04-08T16:10:07.678Z,21.53
2023-04-08T16:12:34.815Z,22.33
2023-04-08T16:15:01.813Z,22.90
2023-04-08T16:17:28.724Z,19.40
2023-04-08T16:19:55.605Z,21.43
2023-04-08T16:22:22.392Z,24.90
2023-04-08T16:24:49.202Z,22.13
2023-04-08T16:27:16.637Z,19.30
2023-04-08T16:29:43.391Z,21.00
2023-04-08T16:32:10.675Z,20.73
2023-04-08T16:34:37.580Z,23.57
2023-04-08T16:37:04.363Z,19.67
2023-04-08T16:39:32.064Z,22.70
2023-04-08T16:41:58.899Z,21.87
2023-04-08T16:44:25.771Z,21.70
2023-04-08T16:46:52.672Z,23.10
2023-04-08T16:49:19.644Z,21.07
2023-04-08T16:51:47.123Z,24.17
2023-04-08T16:54:15.877Z,24.10
2023-04-08T16:56:45.751Z,25.60
2023-04-08T16:59:13.092Z,35.17
2023-04-08T17:01:40.128Z,24.57
2023-04-08T17:04:07.110Z,23.53
2023-04-08T17:06:37.775Z,22.73
2023-04-08T17:09:04.588Z,24.63
2023-04-08T17:11:32.005Z,22.80
2023-04-08T17:13:59.475Z,25.33
2023-04-08T17:16:26.363Z,27.10
2023-04-08T17:18:53.356Z,23.93
2023-04-08T17:21:20.369Z,24.20
2023-04-08T17:23:48.442Z,23.70
2023-04-08T17:26:16.237Z,21.77
2023-04-08T17:28:43.513Z,27.43
2023-04-08T17:31:11.207Z,24.83
2023-04-08T17:33:37.991Z,27.57
2023-04-08T17:36:05.229Z,27.50
2023-04-08T17:38:32.995Z,24.93
2023-04-08T17:40:59.794Z,26.00
2023-04-08T17:43:27.337Z,25.47
2023-04-08T17:45:54.361Z,27.40
2023-04-08T17:48:21.417Z,28.47
2023-04-08T17:50:48.317Z,28.90
2023-04-08T17:53:16.508Z,30.07
2023-04-08T17:55:43.244Z,30.47
2023-04-08T17:58:10.093Z,28.67
2023-04-08T18:00:36.932Z,29.13
2023-04-08T18:03:04.242Z,38.27
2023-04-08T18:05:32.762Z,30.80
2023-04-08T18:07:59.674Z,31.43
2023-04-08T18:10:26.551Z,32.13
2023-04-08T18:12:57.773Z,26.23
2023-04-08T18:15:36.440Z,27.30
2023-04-08T18:18:03.531Z,28.90
2023-04-08T18:20:30.421Z,30.37
2023-04-08T18:22:57.259Z,31.10
2023-04-08T18:25:24.108Z,28.97
2023-04-08T18:27:51.259Z,28.87
2023-04-08T18:30:18.349Z,34.87
2023-04-08T18:32:45.146Z,30.67
2023-04-08T18:35:11.971Z,30.03
2023-04-08T18:37:38.751Z,26.50
2023-04-08T18:40:07.565Z,31.50
2023-04-08T18:42:34.408Z,27.17
2023-04-08T18:45:01.972Z,30.50
2023-04-08T18:47:28.847Z,26.63
2023-04-08T18:49:56.877Z,26.93
2023-04-08T18:52:23.653Z,31.60
2023-04-08T18:54:50.713Z,31.53
2023-04-08T18:57:18.392Z,30.87
2023-04-08T18:59:48.676Z,30.97
2023-04-08T19:02:17.263Z,27.83
2023-04-08T19:04:44.150Z,29.37
2023-04-08T19:07:12.031Z,32.07
2023-04-08T19:13:04.997Z,30.83
2023-04-08T19:15:31.972Z,30.33
2023-04-08T19:17:59.463Z,29.37
2023-04-08T19:20:27.463Z,32.67
2023-04-08T19:22:55.978Z,35.57
2023-04-08T19:25:22.893Z,33.53
2023-04-08T19:27:49.877Z,36.43
2023-04-08T19:30:17.111Z,36.87
2023-04-08T19:32:44.427Z,34.40
2023-04-08T19:35:12.445Z,36.10
2023-04-08T19:37:39.446Z,33.13
2023-04-08T19:40:08.246Z,37.53
2023-04-08T19:42:35.039Z,37.17
2023-04-08T19:45:03.154Z,33.63
2023-04-08T19:47:30.928Z,33.80
2023-04-08T19:49:59.019Z,34.50
2023-04-08T19:52:27.054Z,34.30
2023-04-08T19:54:54.172Z,35.53
2023-04-08T19:57:21.239Z,32.13
2023-04-08T19:59:48.937Z,32.60
2023-04-08T20:02:16.393Z,31.13
2023-04-08T20:04:46.371Z,32.23
2023-04-08T20:07:14.668Z,27.83
2023-04-08T20:09:41.641Z,30.83
2023-04-08T20:12:09.236Z,23.87
2023-04-08T20:14:39.017Z,24.40
2023-04-08T20:17:05.846Z,23.80
2023-04-08T20:19:33.352Z,22.07
2023-04-08T20:22:01.791Z,22.17
2023-04-08T20:24:30.201Z,20.30
2023-04-08T20:26:57.384Z,22.30
2023-04-08T20:29:24.278Z,22.13
2023-04-08T20:31:51.924Z,22.10
2023-04-08T20:34:19.054Z,21.30
2023-04-08T20:36:46.794Z,21.17
2023-04-08T20:39:13.687Z,22.47
2023-04-08T20:41:40.751Z,23.57
2023-04-08T20:44:09.814Z,23.47
2023-04-08T20:46:37.892Z,21.47
2023-04-08T20:49:05.378Z,25.23
2023-04-08T20:51:33.865Z,21.97
2023-04-08T20:54:02.617Z,21.53
2023-04-08T20:56:30.375Z,20.93
2023-04-08T20:58:59.659Z,22.00
2023-04-08T21:01:28.049Z,22.27
2023-04-08T21:03:55.052Z,25.23
2023-04-08T21:06:22.301Z,22.43
2023-04-08T21:08:50.141Z,25.03
2023-04-08T21:11:17.710Z,21.80
2023-04-08T21:13:46.008Z,23.17
2023-04-08T21:16:14.254Z,21.37
2023-04-08T21:18:41.228Z,22.57
2023-04-08T21:21:10.133Z,22.60
2023-04-08T21:23:37.039Z,23.87
2023-04-08T21:26:03.925Z,21.93
2023-04-08T21:28:32.004Z,21.07
2023-04-08T21:31:08.517Z,19.83
2023-04-08T21:33:35.418Z,24.07
2023-04-08T21:36:02.300Z,19.23
2023-04-08T21:38:29.237Z,23.90
2023-04-08T21:40:56.128Z,25.17
2023-04-08T21:43:23.014Z,23.37
2023-04-08T21:45:49.870Z,24.23
2023-04-08T21:48:17.268Z,23.03
2023-04-08T21:50:46.212Z,24.83
2023-04-08T21:53:13.500Z,26.37
2023-04-08T21:55:40.305Z,24.40
2023-04-08T21:58:07.087Z,23.57
2023-04-08T22:00:33.974Z,28.20
2023-04-08T22:03:01.146Z,24.40
2023-04-08T22:05:28.593Z,24.17
2023-04-08T22:07:55.413Z,25.03
2023-04-08T22:10:22.367Z,25.80
2023-04-08T22:12:49.261Z,24.37
2023-04-08T22:15:16.920Z,27.33
2023-04-08T22:17:44.111Z,22.90
2023-04-08T22:20:11.446Z,24.77
2023-04-08T22:22:38.286Z,26.27
2023-04-08T22:25:05.836Z,28.07
2023-04-08T22:27:32.647Z,28.50
2023-04-08T22:29:59.416Z,28.03
2023-04-08T22:32:26.544Z,24.90
2023-04-08T22:34:53.423Z,26.90
2023-04-08T22:37:20.172Z,33.80
2023-04-08T22:39:47.756Z,26.33
2023-04-08T22:42:14.574Z,25.10
2023-04-08T22:44:41.413Z,24.30
2023-04-08T22:47:08.201Z,22.70
2023-04-08T22:49:34.985Z,22.17
2023-04-08T22:52:02.740Z,23.10
2023-04-08T22:54:29.613Z,21.87
2023-04-08T22:56:56.693Z,24.77
2023-04-08T22:59:23.621Z,24.37
2023-04-08T23:01:50.438Z,21.20
2023-04-08T23:04:18.056Z,21.57
2023-04-08T23:06:44.968Z,23.93
2023-04-08T23:09:11.711Z,21.70
2023-04-08T23:11:38.613Z,24.93
2023-04-08T23:14:05.738Z,22.87
2023-04-08T23:16:33.029Z,26.10
2023-04-08T23:18:59.873Z,23.43
2023-04-08T23:21:27.079Z,23.47
2023-04-08T23:23:53.900Z,22.77
2023-04-08T23:26:23.378Z,23.03
2023-04-08T23:28:50.454Z,24.47
2023-04-08T23:31:18.243Z,22.30
2023-04-08T23:33:45.037Z,20.90
2023-04-08T23:36:12.509Z,22.40
2023-04-08T23:38:39.353Z,23.90
2023-04-08T23:41:07.281Z,23.27
2023-04-08T23:43:36.219Z,25.17
2023-04-08T23:46:03.567Z,24.57
2023-04-08T23:48:30.404Z,26.77
2023-04-08T23:50:57.197Z,23.33
2023-04-08T23:53:23.931Z,26.30
2023-04-08T23:55:50.723Z,26.77
2023-04-08T23:58:18.382Z,27.93
